Aérodrome :
LOGIN :

S'inscrire | Disclaimer

   EN    FR    IT 

 










Légende :    VFR   VFR Marginal   IFR   IFR Intensif   IFR Très Intensif
Visi : 
Plafond : 
>= 8 km
>= 3000ft
5 à 8 km
1000 à 3000 ft
1500m à 5 km
500 à 1000 ft
800 à 1500m
200 à 500 ft
< 800m
< 200 ft
Symboles :   Orages  Brouillard  Fortes neiges  Fortes précipitations  Vent > 20 kt
SIGMETs :   Divers  Orages  Givrage  Turbulence  Onde Orograph.  Cendres Volcan.






- Altitude de l'aérodrome : 138 ft
- Code IATA : RLG


ETNL - Rostock Laage

DERNIER METAR :
  • 260120Z 25009KT 9999 BKN013 03/00 Q0989 GRN

METARs EXPIRÉS :
  • 260113Z 25010KT 9999 BKN013 03/00 Q0989 GRN
  • 260020Z 25009KT 9999 BKN015 BKN026 03/00 Q0989 WHT
  • 252320Z 26013G23KT 9999 BKN017 04/M00 Q0989 WHT

TAF TAF ETNL
Valide du 26 à 00h jusqu'au 26 à 12h UTC


252300Z 2600/2612 24010G20KT 9999 NSW BKN018 BKN180
TEMPO 2600/2604 25012G25KT 4000 -SHRA BKN010 BKN015TCU
PROB30 2604/2608 26010KT 6000 NSW BKN025 BKN180 BY ETGL



MET'MAP, la Météo Aéronautique d'un coup d'oeil ! - Copyright ORBIFLY Décembre 2007 - Disclaimer

ORBIFLY MET'MAP TEAM :

Programmation & Développement : Alexandra Zaïnal
Sur une idée originale de : Baudouin d'Aumeries
Assistance à la programmation : Marc-Olivier Méhu
Soutien technique & logistique : Manuel Goepfert

Contact : metmap@orbifly.com




SOURCES & CREDITS :

   NOAA